createdAt,value
2022-09-30T00:00:40.521Z,7.68
2022-09-30T00:03:07.910Z,10.23
2022-09-30T00:05:37.182Z,7.85
2022-09-30T00:08:04.633Z,8.48
2022-09-30T00:10:33.538Z,7.95
2022-09-30T00:13:00.784Z,7.78
2022-09-30T00:15:28.521Z,8.25
2022-09-30T00:17:55.868Z,15.95
2022-09-30T00:20:23.300Z,11.55
2022-09-30T00:22:50.606Z,8.75
2022-09-30T00:25:18.584Z,9.07
2022-09-30T00:27:45.830Z,8.50
2022-09-30T00:30:12.988Z,8.73
2022-09-30T00:32:40.580Z,8.07
2022-09-30T00:35:08.046Z,8.50
2022-09-30T00:37:35.533Z,8.57
2022-09-30T00:40:02.870Z,9.10
2022-09-30T00:42:31.784Z,8.70
2022-09-30T00:45:06.073Z,8.93
2022-09-30T00:47:51.762Z,10.18
2022-09-30T00:50:26.265Z,9.43
2022-09-30T00:53:29.903Z,9.50
2022-09-30T00:56:07.466Z,11.63
2022-09-30T00:58:40.187Z,10.63
2022-09-30T01:01:07.571Z,10.27
2022-09-30T01:03:50.475Z,10.70
2022-09-30T01:06:18.923Z,10.77
2022-09-30T01:08:48.003Z,11.13
2022-09-30T01:11:15.490Z,11.07
2022-09-30T01:13:45.468Z,13.50
2022-09-30T01:16:37.489Z,12.15
2022-09-30T01:19:29.499Z,12.35
2022-09-30T01:22:24.780Z,12.88
2022-09-30T01:24:57.717Z,13.15
2022-09-30T01:28:15.906Z,12.70
2022-09-30T01:31:43.969Z,14.48
2022-09-30T01:34:19.944Z,13.40
2022-09-30T01:37:10.846Z,14.60
2022-09-30T01:40:04.025Z,13.73
2022-09-30T01:42:52.041Z,15.93
2022-09-30T01:45:33.540Z,17.17
2022-09-30T01:48:06.524Z,17.98
2022-09-30T01:50:56.268Z,19.23
2022-09-30T01:53:34.033Z,21.23
2022-09-30T01:56:06.336Z,21.75
2022-09-30T01:58:58.172Z,23.08
2022-09-30T02:01:39.250Z,26.00
2022-09-30T02:04:19.773Z,27.25
2022-09-30T02:06:52.369Z,28.67
2022-09-30T02:09:28.587Z,29.35
2022-09-30T02:11:56.554Z,31.92
2022-09-30T02:14:28.582Z,33.63
2022-09-30T02:17:02.334Z,33.70
2022-09-30T02:19:51.118Z,35.50
2022-09-30T02:22:21.542Z,36.03
2022-09-30T02:24:55.588Z,39.28
2022-09-30T02:27:32.003Z,37.25
2022-09-30T02:30:00.844Z,39.88
2022-09-30T02:32:31.939Z,41.05
2022-09-30T02:35:06.578Z,39.00
2022-09-30T02:37:39.470Z,38.22
2022-09-30T02:40:10.440Z,40.35
2022-09-30T02:42:38.781Z,41.95
2022-09-30T02:45:10.295Z,42.13
2022-09-30T02:47:55.894Z,41.10
2022-09-30T02:50:31.524Z,43.45
2022-09-30T02:53:18.914Z,44.67
2022-09-30T02:55:51.437Z,43.63
2022-09-30T02:58:21.406Z,43.05
2022-09-30T03:00:52.935Z,46.03
2022-09-30T03:03:23.286Z,45.35
2022-09-30T03:05:53.636Z,45.30
2022-09-30T03:08:21.279Z,43.47
2022-09-30T03:10:50.980Z,45.17
2022-09-30T03:13:31.773Z,43.65
2022-09-30T03:15:59.492Z,44.85
2022-09-30T03:18:45.630Z,45.00
2022-09-30T03:21:32.128Z,44.58
2022-09-30T03:24:17.190Z,45.03
2022-09-30T03:27:06.516Z,47.22
2022-09-30T03:29:36.630Z,45.03
2022-09-30T03:32:30.046Z,46.05
2022-09-30T03:35:03.380Z,45.40
2022-09-30T03:37:49.291Z,45.17
2022-09-30T03:40:22.394Z,43.00
2022-09-30T03:43:20.530Z,43.33
2022-09-30T03:46:01.267Z,41.28
2022-09-30T03:48:29.689Z,41.10
2022-09-30T03:50:57.223Z,42.17
2022-09-30T03:53:27.870Z,42.33
2022-09-30T03:55:55.277Z,41.13
2022-09-30T03:58:23.622Z,39.03
2022-09-30T04:00:53.311Z,35.95
2022-09-30T04:03:22.074Z,33.85
2022-09-30T04:05:51.501Z,33.13
2022-09-30T04:08:18.722Z,32.60
2022-09-30T04:10:46.067Z,32.08
2022-09-30T04:13:13.298Z,31.95
2022-09-30T04:15:40.713Z,29.80
2022-09-30T04:18:08.269Z,27.25
2022-09-30T04:20:35.546Z,24.70
2022-09-30T04:23:03.946Z,25.02
2022-09-30T04:25:31.264Z,25.08
2022-09-30T04:27:58.540Z,23.67
2022-09-30T04:30:29.042Z,24.95
2022-09-30T04:32:58.775Z,25.92
2022-09-30T04:35:28.392Z,25.85
2022-09-30T04:37:55.629Z,28.08
2022-09-30T04:40:23.114Z,28.83
2022-09-30T04:42:50.298Z,30.15
2022-09-30T04:45:17.580Z,31.08
2022-09-30T04:47:47.597Z,32.33
2022-09-30T04:50:17.064Z,32.42
2022-09-30T04:52:44.501Z,33.50
2022-09-30T04:55:11.916Z,34.42
2022-09-30T04:57:39.582Z,35.72
2022-09-30T05:00:09.364Z,37.40
2022-09-30T05:02:36.671Z,40.47
2022-09-30T05:05:04.722Z,40.72
2022-09-30T05:07:32.193Z,42.30
2022-09-30T05:09:59.476Z,44.97
2022-09-30T05:12:27.236Z,46.17
2022-09-30T05:14:55.094Z,47.22
2022-09-30T05:17:32.519Z,51.33
2022-09-30T05:20:02.837Z,49.58
2022-09-30T05:22:33.139Z,51.05
2022-09-30T05:25:00.323Z,51.38
2022-09-30T05:27:27.825Z,54.35
2022-09-30T05:29:55.358Z,54.17
2022-09-30T05:32:22.718Z,53.10
2022-09-30T05:34:54.506Z,55.30
2022-09-30T05:37:22.109Z,67.43
2022-09-30T05:39:49.670Z,53.88
2022-09-30T05:42:17.512Z,55.60
2022-09-30T05:44:44.873Z,56.65
2022-09-30T05:47:12.414Z,57.38
2022-09-30T05:49:42.215Z,59.53
2022-09-30T05:52:09.498Z,59.42
2022-09-30T05:54:36.717Z,61.05
2022-09-30T05:57:04.365Z,63.15
2022-09-30T05:59:31.671Z,60.85
2022-09-30T06:01:58.889Z,57.28
2022-09-30T06:04:27.605Z,50.67
2022-09-30T06:06:54.873Z,42.08
2022-09-30T06:09:24.162Z,33.25
2022-09-30T06:11:51.805Z,32.22
2022-09-30T06:14:21.924Z,29.80
2022-09-30T06:16:49.962Z,28.80
2022-09-30T06:19:17.213Z,27.95
2022-09-30T06:21:44.354Z,26.17
2022-09-30T06:24:13.264Z,26.70
2022-09-30T06:26:42.394Z,24.42
2022-09-30T06:29:09.684Z,25.33
2022-09-30T06:31:37.008Z,27.15
2022-09-30T06:34:04.713Z,27.10
2022-09-30T06:36:33.445Z,26.52
2022-09-30T06:39:05.011Z,25.15
2022-09-30T06:41:33.897Z,26.77
2022-09-30T06:44:05.993Z,26.65
2022-09-30T06:46:37.608Z,24.90
2022-09-30T06:49:13.696Z,24.52
2022-09-30T06:51:42.708Z,24.27
2022-09-30T06:54:10.592Z,31.98
2022-09-30T06:56:37.861Z,25.10
2022-09-30T06:59:05.589Z,26.65
2022-09-30T07:01:32.904Z,26.40
2022-09-30T07:04:08.057Z,25.20
2022-09-30T07:06:35.611Z,26.13
2022-09-30T07:09:02.957Z,26.60
2022-09-30T07:11:30.628Z,26.67
2022-09-30T07:13:57.916Z,29.33
2022-09-30T07:16:27.861Z,26.27
2022-09-30T07:18:55.193Z,25.27
2022-09-30T07:21:22.601Z,23.17
2022-09-30T07:23:49.797Z,22.30
2022-09-30T07:26:19.359Z,21.23
2022-09-30T07:28:47.435Z,19.33
2022-09-30T07:31:34.684Z,19.27
2022-09-30T07:34:07.068Z,18.10
2022-09-30T07:36:37.909Z,17.85
2022-09-30T07:39:08.488Z,16.50
2022-09-30T07:41:39.019Z,15.77
2022-09-30T07:44:12.256Z,11.35
2022-09-30T07:46:40.607Z,12.40
2022-09-30T07:49:14.610Z,11.75
2022-09-30T07:51:45.855Z,11.02
2022-09-30T07:54:16.037Z,11.32
2022-09-30T07:57:08.844Z,11.75
2022-09-30T07:59:35.299Z,12.27
2022-09-30T08:02:02.914Z,10.43
2022-09-30T08:04:30.689Z,10.80
2022-09-30T08:07:00.298Z,10.43
2022-09-30T08:09:29.967Z,9.85
2022-09-30T08:11:57.460Z,7.50
2022-09-30T08:14:26.888Z,6.20
2022-09-30T08:16:55.891Z,6.47
2022-09-30T08:19:24.624Z,5.82
2022-09-30T08:21:55.866Z,5.13
2022-09-30T08:24:30.362Z,4.93
2022-09-30T08:26:58.419Z,7.20
2022-09-30T08:32:13.230Z,5.40
2022-09-30T08:34:40.421Z,5.13
2022-09-30T08:37:12.717Z,5.00
2022-09-30T08:39:40.066Z,4.03
2022-09-30T08:42:35.957Z,4.43
2022-09-30T08:45:13.383Z,4.80
2022-09-30T08:48:02.554Z,4.00
2022-09-30T08:51:07.373Z,6.00
2022-09-30T08:53:43.031Z,8.00
2022-09-30T08:56:26.177Z,10.65
2022-09-30T08:58:57.147Z,10.82
2022-09-30T09:01:29.769Z,7.13
2022-09-30T09:03:59.819Z,9.25
2022-09-30T09:06:27.467Z,6.90
2022-09-30T09:09:19.521Z,8.70
2022-09-30T09:11:55.811Z,8.70
2022-09-30T09:14:28.597Z,11.90
2022-09-30T09:17:18.270Z,9.07
2022-09-30T09:20:05.627Z,9.52
2022-09-30T09:22:34.522Z,10.25
2022-09-30T09:25:02.226Z,27.80
2022-09-30T09:27:53.999Z,12.35
2022-09-30T09:30:23.352Z,11.60
2022-09-30T09:32:55.351Z,11.98
2022-09-30T09:35:22.991Z,13.20
2022-09-30T09:38:23.384Z,14.05
2022-09-30T09:41:12.881Z,13.60
2022-09-30T09:44:04.719Z,15.80
2022-09-30T09:46:45.637Z,35.33
2022-09-30T09:49:23.629Z,16.23
2022-09-30T09:52:05.876Z,15.43
2022-09-30T09:54:37.956Z,16.95
2022-09-30T09:57:09.412Z,18.05
2022-09-30T09:59:56.229Z,18.85
2022-09-30T10:02:31.684Z,18.73
2022-09-30T10:05:03.953Z,19.45
2022-09-30T10:07:33.320Z,18.80
2022-09-30T10:10:23.545Z,20.52
2022-09-30T10:12:51.749Z,20.08
2022-09-30T10:15:24.142Z,21.08
2022-09-30T10:17:57.854Z,21.80
2022-09-30T10:20:33.924Z,26.33
2022-09-30T10:23:16.409Z,23.33
2022-09-30T10:26:16.712Z,22.98
2022-09-30T10:28:59.682Z,21.92
2022-09-30T10:31:36.365Z,22.67
2022-09-30T10:34:29.976Z,28.13
2022-09-30T10:36:59.086Z,22.15
2022-09-30T10:39:29.250Z,20.65
2022-09-30T10:42:26.302Z,20.63
2022-09-30T10:45:01.998Z,19.95
2022-09-30T10:47:34.115Z,18.67
2022-09-30T10:50:27.833Z,18.95
2022-09-30T10:52:57.788Z,19.95
2022-09-30T10:55:29.245Z,18.95
2022-09-30T10:58:04.878Z,19.08
2022-09-30T11:00:35.631Z,18.98
2022-09-30T11:03:20.402Z,20.77
2022-09-30T11:05:49.971Z,18.40
2022-09-30T11:08:22.373Z,18.17
2022-09-30T11:11:14.252Z,17.00
2022-09-30T11:14:29.512Z,18.02
2022-09-30T11:17:10.681Z,18.77
2022-09-30T11:19:49.225Z,18.88
2022-09-30T11:22:28.631Z,22.63
2022-09-30T11:24:57.346Z,21.75
2022-09-30T11:27:27.676Z,19.58
2022-09-30T11:29:59.766Z,20.23
2022-09-30T11:32:41.982Z,21.35
2022-09-30T11:35:30.865Z,19.52
2022-09-30T11:38:10.347Z,20.30
2022-09-30T11:41:06.827Z,18.73
2022-09-30T11:44:08.185Z,18.23
2022-09-30T11:46:47.466Z,18.25
2022-09-30T11:49:28.455Z,18.40
2022-09-30T11:52:16.909Z,19.83
2022-09-30T11:55:06.537Z,20.70
2022-09-30T11:58:22.715Z,19.60
2022-09-30T12:01:21.836Z,22.15
2022-09-30T12:04:16.817Z,21.75
2022-09-30T12:06:53.343Z,22.33
2022-09-30T12:09:23.073Z,21.48
2022-09-30T12:12:10.243Z,20.60
2022-09-30T12:14:50.912Z,20.05
2022-09-30T12:17:26.889Z,21.30
2022-09-30T12:19:56.476Z,20.23
2022-09-30T12:22:23.806Z,20.20
2022-09-30T12:24:50.992Z,21.48
2022-09-30T12:27:24.205Z,19.83
2022-09-30T12:30:18.083Z,19.00
2022-09-30T12:33:05.659Z,20.15
2022-09-30T12:35:54.589Z,17.40
2022-09-30T12:38:50.835Z,16.65
2022-09-30T12:41:27.142Z,16.50
2022-09-30T12:43:56.976Z,16.50
2022-09-30T12:46:39.583Z,17.42
2022-09-30T12:49:10.916Z,18.98
2022-09-30T12:51:42.951Z,18.63
2022-09-30T12:54:32.958Z,19.30
2022-09-30T12:57:04.072Z,22.17
2022-09-30T12:59:34.912Z,24.83
2022-09-30T13:02:04.316Z,24.52
2022-09-30T13:04:37.832Z,22.48
2022-09-30T13:07:08.330Z,25.50
2022-09-30T13:09:38.703Z,23.65
2022-09-30T13:12:06.652Z,22.10
2022-09-30T13:14:35.048Z,24.23
2022-09-30T13:17:08.409Z,25.20
2022-09-30T13:19:36.864Z,25.25
2022-09-30T13:22:32.408Z,25.48
2022-09-30T13:25:06.742Z,22.63
2022-09-30T13:27:41.810Z,22.35
2022-09-30T13:30:18.182Z,22.98
2022-09-30T13:33:04.980Z,23.02
2022-09-30T13:35:34.434Z,23.10
2022-09-30T13:38:10.642Z,24.30
2022-09-30T13:41:03.651Z,21.42
2022-09-30T13:43:39.899Z,20.23
2022-09-30T13:46:19.201Z,20.08
2022-09-30T13:48:55.274Z,20.42
2022-09-30T13:51:25.097Z,18.75
2022-09-30T13:53:55.563Z,18.00
2022-09-30T13:56:26.205Z,17.50
2022-09-30T13:58:53.425Z,16.08
2022-09-30T14:01:26.277Z,17.70
2022-09-30T14:04:47.915Z,17.70
2022-09-30T14:07:52.400Z,14.90
2022-09-30T14:10:43.952Z,14.13
2022-09-30T14:13:26.104Z,14.88
2022-09-30T14:16:06.440Z,13.82
2022-09-30T14:18:39.894Z,13.32
2022-09-30T14:21:20.394Z,13.27
2022-09-30T14:24:11.472Z,14.00
2022-09-30T14:27:03.230Z,14.07
2022-09-30T14:29:50.054Z,13.50
2022-09-30T14:32:20.897Z,12.95
2022-09-30T14:35:45.671Z,13.80
2022-09-30T14:38:32.768Z,12.60
2022-09-30T14:41:07.955Z,12.75
2022-09-30T14:43:42.577Z,14.13
2022-09-30T14:46:24.960Z,14.95
2022-09-30T14:48:53.520Z,16.55
2022-09-30T14:51:23.744Z,15.93
2022-09-30T14:53:57.058Z,16.02
2022-09-30T14:56:31.823Z,16.75
2022-09-30T14:59:00.960Z,16.42
2022-09-30T15:01:35.099Z,19.17
2022-09-30T15:04:11.456Z,18.83
2022-09-30T15:06:41.384Z,17.90
2022-09-30T15:09:17.862Z,17.50
2022-09-30T15:11:45.350Z,18.65
2022-09-30T15:14:16.181Z,17.38
2022-09-30T15:16:49.088Z,17.88
2022-09-30T15:19:23.787Z,23.08
2022-09-30T15:21:52.525Z,23.88
2022-09-30T15:24:21.887Z,20.55
2022-09-30T15:26:49.965Z,18.33
2022-09-30T15:29:17.616Z,17.65
2022-09-30T15:31:47.783Z,30.80
2022-09-30T15:34:20.499Z,18.75
2022-09-30T15:37:07.997Z,15.38
2022-09-30T15:39:59.502Z,17.25
2022-09-30T15:42:38.989Z,16.30
2022-09-30T15:45:35.588Z,15.85
2022-09-30T15:48:07.018Z,18.90
2022-09-30T15:50:49.594Z,16.10
2022-09-30T15:53:24.924Z,15.10
2022-09-30T15:55:55.698Z,14.98
2022-09-30T15:58:26.579Z,15.43
2022-09-30T16:00:55.020Z,16.13
2022-09-30T16:03:26.678Z,15.48
2022-09-30T16:06:07.879Z,17.85
2022-09-30T16:08:43.313Z,21.92
2022-09-30T16:11:20.572Z,21.83
2022-09-30T16:13:49.780Z,23.67
2022-09-30T16:16:24.068Z,21.05
2022-09-30T16:18:55.474Z,15.88
2022-09-30T16:21:44.147Z,16.83
2022-09-30T16:24:21.411Z,15.55
2022-09-30T16:26:55.739Z,14.90
2022-09-30T16:29:24.021Z,14.38
2022-09-30T16:31:54.110Z,14.70
2022-09-30T16:34:26.935Z,14.57
2022-09-30T16:36:55.505Z,17.55
2022-09-30T16:39:22.895Z,14.23
2022-09-30T16:41:54.074Z,13.52
2022-09-30T16:44:23.540Z,14.63
2022-09-30T16:46:51.737Z,13.10
2022-09-30T16:49:19.916Z,22.65
2022-09-30T16:51:47.323Z,14.77
2022-09-30T16:54:14.585Z,12.57
2022-09-30T16:56:42.471Z,13.32
2022-09-30T16:59:17.572Z,13.60
2022-09-30T17:01:45.135Z,12.52
2022-09-30T17:04:15.246Z,13.55
2022-09-30T17:06:46.153Z,13.25
2022-09-30T17:09:13.429Z,13.30
2022-09-30T17:11:42.857Z,12.88
2022-09-30T17:14:10.231Z,12.95
2022-09-30T17:16:38.213Z,13.52
2022-09-30T17:19:06.106Z,15.30
2022-09-30T17:21:33.494Z,14.55
2022-09-30T17:24:12.205Z,14.18
2022-09-30T17:26:40.593Z,14.15
2022-09-30T17:29:30.933Z,14.18
2022-09-30T17:31:58.500Z,14.25
2022-09-30T17:34:28.128Z,15.50
2022-09-30T17:36:56.572Z,20.38
2022-09-30T17:39:27.778Z,17.38
2022-09-30T17:42:13.577Z,16.20
2022-09-30T17:44:40.968Z,35.63
2022-09-30T17:47:08.173Z,23.13
2022-09-30T17:49:35.960Z,25.98
2022-09-30T17:52:05.632Z,59.10
2022-09-30T17:54:34.452Z,28.77
2022-09-30T17:57:04.458Z,16.92
2022-09-30T17:59:31.941Z,17.15
2022-09-30T18:01:59.564Z,20.35
2022-09-30T18:04:28.717Z,19.67
2022-09-30T18:06:56.912Z,17.05
2022-09-30T18:09:24.697Z,20.98
2022-09-30T18:11:53.785Z,14.50
2022-09-30T18:14:21.049Z,32.78
2022-09-30T18:16:48.327Z,20.67
2022-09-30T18:19:16.546Z,18.55
2022-09-30T18:21:43.909Z,19.75
2022-09-30T18:24:11.182Z,16.55
2022-09-30T18:26:41.611Z,15.40
2022-09-30T18:29:09.392Z,14.07
2022-09-30T18:31:39.727Z,14.80
2022-09-30T18:34:13.295Z,16.05
2022-09-30T18:36:42.521Z,16.13
2022-09-30T18:39:09.698Z,17.15
2022-09-30T18:41:43.134Z,15.98
2022-09-30T18:44:12.870Z,16.75
2022-09-30T18:46:42.977Z,16.50
2022-09-30T18:49:10.645Z,26.08
2022-09-30T18:51:38.293Z,16.63
2022-09-30T18:54:05.908Z,20.80
2022-09-30T18:56:33.619Z,19.77
2022-09-30T18:59:06.020Z,20.25
2022-09-30T19:01:34.079Z,17.67
2022-09-30T19:04:03.901Z,19.63
2022-09-30T19:06:32.151Z,18.58
2022-09-30T19:09:01.802Z,18.30
2022-09-30T19:11:30.751Z,17.85
2022-09-30T19:14:01.534Z,16.92
2022-09-30T19:16:35.270Z,17.98
2022-09-30T19:19:06.480Z,16.52
2022-09-30T19:21:36.357Z,17.20
2022-09-30T19:24:06.771Z,17.95
2022-09-30T19:26:36.791Z,17.85
2022-09-30T19:29:05.893Z,18.33
2022-09-30T19:31:35.942Z,18.63
2022-09-30T19:34:04.082Z,18.60
2022-09-30T19:36:40.610Z,17.08
2022-09-30T19:39:15.618Z,17.10
2022-09-30T19:41:44.630Z,17.60
2022-09-30T19:44:15.858Z,16.77
2022-09-30T19:46:43.110Z,16.40
2022-09-30T19:49:11.457Z,16.08
2022-09-30T19:51:38.952Z,15.73
2022-09-30T19:54:07.638Z,16.00
2022-09-30T19:56:36.987Z,16.30
2022-09-30T19:59:06.006Z,15.40
2022-09-30T20:01:34.886Z,17.08
2022-09-30T20:04:05.001Z,16.88
2022-09-30T20:06:34.320Z,19.35
2022-09-30T20:09:04.308Z,16.52
2022-09-30T20:11:36.192Z,17.45
2022-09-30T20:14:26.937Z,15.98
2022-09-30T20:16:54.909Z,16.05
2022-09-30T20:19:23.112Z,16.13
2022-09-30T20:21:50.774Z,16.08
2022-09-30T20:24:18.566Z,16.10
2022-09-30T20:26:50.205Z,15.43
2022-09-30T20:29:19.880Z,17.80
2022-09-30T20:31:49.302Z,17.13
2022-09-30T20:34:18.376Z,16.02
2022-09-30T20:36:45.912Z,37.67
2022-09-30T20:39:13.717Z,19.38
2022-09-30T20:41:41.841Z,17.88
2022-09-30T20:44:13.835Z,18.23
2022-09-30T20:46:41.996Z,16.10
2022-09-30T20:49:09.520Z,16.38
2022-09-30T20:51:38.165Z,18.63
2022-09-30T20:54:05.414Z,16.35
2022-09-30T20:56:50.068Z,18.45
2022-09-30T20:59:20.451Z,16.90
2022-09-30T21:01:47.852Z,17.83
2022-09-30T21:04:15.303Z,17.17
2022-09-30T21:06:42.721Z,16.90
2022-09-30T21:09:13.393Z,17.27
2022-09-30T21:11:42.451Z,17.42
2022-09-30T21:14:10.090Z,19.83
2022-09-30T21:16:37.707Z,29.33
2022-09-30T21:19:05.827Z,19.67
2022-09-30T21:21:36.516Z,17.55
2022-09-30T21:24:03.959Z,16.50
2022-09-30T21:26:31.179Z,17.35
2022-09-30T21:28:59.986Z,27.40
2022-09-30T21:31:28.575Z,22.25
2022-09-30T21:33:59.903Z,17.17
2022-09-30T21:36:28.194Z,16.88
2022-09-30T21:39:01.315Z,17.42
2022-09-30T21:41:33.607Z,17.25
2022-09-30T21:44:03.194Z,27.45
2022-09-30T21:46:30.625Z,18.23
2022-09-30T21:49:14.339Z,17.98
2022-09-30T21:51:41.992Z,18.00
2022-09-30T21:54:10.161Z,17.77
2022-09-30T21:56:38.992Z,17.60
2022-09-30T21:59:06.881Z,17.67
2022-09-30T22:01:34.698Z,17.27
2022-09-30T22:04:03.212Z,16.70
2022-09-30T22:06:31.337Z,17.00
2022-09-30T22:09:01.842Z,16.73
2022-09-30T22:11:31.393Z,16.63
2022-09-30T22:14:03.946Z,16.77
2022-09-30T22:16:35.012Z,17.10
2022-09-30T22:19:05.001Z,16.42
2022-09-30T22:21:34.291Z,16.70
2022-09-30T22:24:04.146Z,16.83
2022-09-30T22:26:32.945Z,17.27
2022-09-30T22:29:06.198Z,16.20
2022-09-30T22:31:34.091Z,16.90
2022-09-30T22:34:22.101Z,16.20
2022-09-30T22:37:07.613Z,17.33
2022-09-30T22:39:35.336Z,17.05
2022-09-30T22:42:03.320Z,16.88
2022-09-30T22:44:35.619Z,18.80
2022-09-30T22:47:03.621Z,18.77
2022-09-30T22:49:34.366Z,16.95
2022-09-30T22:52:03.704Z,17.85
2022-09-30T22:54:31.177Z,17.38
2022-09-30T22:57:01.244Z,18.10
2022-09-30T22:59:29.352Z,17.23
2022-09-30T23:01:57.230Z,17.80
2022-09-30T23:04:26.065Z,16.75
2022-09-30T23:06:55.396Z,16.98
2022-09-30T23:09:23.556Z,17.83
2022-09-30T23:11:55.013Z,17.30
2022-09-30T23:14:22.866Z,17.33
2022-09-30T23:16:50.827Z,17.27
2022-09-30T23:19:18.828Z,17.38
2022-09-30T23:21:46.263Z,17.83
2022-09-30T23:24:15.746Z,18.17
2022-09-30T23:26:43.621Z,18.73
2022-09-30T23:29:12.757Z,17.17
2022-09-30T23:31:40.712Z,18.85
2022-09-30T23:34:08.079Z,18.55
2022-09-30T23:36:37.237Z,18.17
2022-09-30T23:39:12.606Z,17.25
2022-09-30T23:41:40.143Z,18.58
2022-09-30T23:44:09.693Z,17.67
2022-09-30T23:46:37.069Z,18.15
2022-09-30T23:49:05.867Z,17.48
2022-09-30T23:51:34.374Z,16.67
2022-09-30T23:54:05.551Z,18.52
2022-09-30T23:56:33.508Z,17.90
2022-09-30T23:59:00.730Z,17.98
